Disclaimer   
PNR Super Search
 ♦ 
×
HashTag:
PNR Number:
Train Type:
Train:
From Station:
To Station:
Train Class:
2SSLCCEx3AFC2A1A3E
WL Quota:
DOJ From:
DOJ To:
Blogger:
Traveller:
Predictor:
Prediction:
WLRACConf
Stamper:
Final:
WLRACConfVoidQ-ConfUnStamped
Status:
Reaction:

Search
  Go  
 
Mon Feb 2, 2015 01:12:08 ISTHomeTrainsΣChainsAtlasPNRForumGalleryNewsFAQTripsMembersLoginFeedback
Mon Feb 2, 2015 01:12:08 IST
Post PNRPNR StatusModify Search

Ticket PNR Status Inquiry - PNR: 213-xxxxxxx (E-Ticket)

OLD STATUS

Status Last Updated on: Jul 15 2012 (4:19PM) IST

Date of Journey: Sun Aug 05, 2012   Class: AC 3-tier - 3A   (Total Seats available for this Class/Quota: Avbl >18)
Passenger 1: Confirmed (Booking Status: B1,40,GN)
Chart NOT Prepared

Amritsar - Mumbai LTT (Pathankot) Express/11058

Travel Time: 22h 28m    47 halts    Distance: 1125 km    Avg Speed: 50 km/hr
Type: Mail/Express
Zone: CR/Central
Departs @ 20:50 (Avg 38m late)
Platform# 4
SMTWTFS
NDLS/New Delhi 
Arrives @ 19:18 +1 night (Avg 3h 46m late)
Platform# 2
SMTWTFS
JL/Jalgaon Junction 

47 halts. 156 intermediate Stations between New Delhi and Jalgaon Junction

Show ALL intermediate Stations  Show Old Time-Table

#TrkCodeStation NameX/OArrivesAvgDepartsAvgHaltPFDay#KmSpeedElevZoneAddress
1/==/ASRAmritsar Junction  -08:30+2041-502.977233mNRAmritsar 143002, Punjab
2/==/JNLJandialaX  08:45+3008:47+302m21-483.768238mNRJandiala, Punjab
3/==/BEASBeas JunctionX  09:08+3209:10+322m21-459.961238mNRBeas, Punjab
4/==/KREKartarpurX  09:31+3209:33+322m11-438.473236mNRKartarpur, Punjab
5/==/JUCJalandhar City JunctionX  09:45+3609:55+3410m21-423.818239mNRJalandhar 144001, Punjab
6/==/JRCJalandhar Cantt. JunctionX  10:11+2710:13+272m21-418.970239mNRNear Rama Mandi, Punjab
7/==/PGWPhagwara JunctionX  10:27+2810:29+282m11-402.654245mNRPhagwara, Punjab
8/==/GRYGoraya  10:40+2910:42+292m11-392.864240mNRGoraya, Punjab
9/==/PHRPhillaur Junction  10:54+2910:56+292m11-380.133246mNRPhillaur, Punjab
10/==/LDHLudhiana Junction  11:20+2611:30+3010m41-367.029246mNRLudhiana 141001, Punjab
11|--|AHHAhmadgarh  12:23+1812:25+212m11-341.679256mNRAhmedgarh, Punjab
12|--|METMalerkotlaX  12:40+2612:42+262m21-321.753248mNRMalerkotla., Punjab
13|--|DUIDhuri Junction  13:01+2913:04+333m--1-304.973248mNRDhuri, Punjab
14|--|NBANabha  13:26+4213:28+432m11-278.070250mNRNabha, Punjab
15|--|PTAPatialaX  13:50+4813:53+513m11-252.137256mNRPatiala, Punjab
16|--|RPJRajpura JunctionOO  14:33+4014:35+412m21-227.359272mNRNH-1., Punjab
17/==/UBCAmbala CityXO  14:56+3814:58+382m11-206.821273mNRNH-1, Haryana
18/==/UMBAmbala Cantt. JunctionXO15:20+3115:55+5635m11-199.285278mNRAmbala 133001, Haryana
19/==/SHDMShahbad Markanda  16:09+4516:11+452m11-179.378267mNRShahabad Markanda, Haryana
20/==/KKDEKurukshetra JunctionX  16:28+4616:30+472m21-157.160260mNRKurukshetra, Haryana
21/==/NLKRNilokheriX  16:47+4516:49+452m--1-140.134254mNRNilokheri, Haryana
22/==/TRRTaraoriX  16:56+4616:58+462m21-136.140255mNRTaraori, Haryana
23/==/KUNKarnal  17:16+4117:18+422m11-124.066253mNRKarnal, Haryana
24/==/GRAGharaunda  17:34+4017:36+402m11-106.656244mNRGharaunda, Haryana
25/==/PNPPanipat JunctionX  17:54+3717:56+382m21-89.660235mNRPanipat, Haryana
26/==/SMKSamalkha  18:13+3618:15+372m11-72.657229mNRSamalkha, Haryana
27/==/GNUGanaur  18:28+3518:30+352m--1-60.460222mNRGanaur, Haryana
28/==/SNPSonipat  18:46+3818:48+382m11-44.548225mNRSonipat, Haryana
29/==/RDDERathdhanaX  19:01+3619:03+362m--1-34.050223mNRSonipat, Haryana
30/==/NURNarela  19:11+3519:13+362m--1-27.459222mNRNarela, Delhi NCT
31/==/ANDIAdarsh Nagar  19:30+4019:32+402m11-10.721214mNRShalimar Bagh, Delhi NCT
32/==/SZMDelhi Sabzi Mandi  19:51+3719:53+412m31-4.19220mNRGulabi Bagh, Delhi NCT
33/==/NDLSNew Delhi»X  20:20+3920:50+3830m410.034215mNRNew Delhi 110002, Delhi NCT
34/==/NZMDelhi Hazrat NizamuddinX  21:03+4521:05+472m417.457209mNRNew Delhi 110013, Delhi NCT
35/==/FDBFaridabadX  21:27+4921:29+512m3128.237206mNRold Faridabad, Haryana
36/==/BVHBallabgarhO  21:42+4821:44+492m--136.229203mNRFaridabad, Haryana
37/==/PWLPalwal  22:28+2922:30+302m--157.485200mNRPalwal, Haryana
38/==/KSVKosi Kalan  23:00+5123:02+542m2199.975189mNCRKosi Kalan, Uttar Pradesh
39/==/MTJMathura Junction  23:35+1:0823:40+1:115m11141.356179mNCRMathura, Uttar Pradesh
40/==/RKMRaja Ki MandiX  00:33+1:3000:35+1:332m22191.012170mNCRAgra, Uttar Pradesh
41/==/AGCAgra Cantt.X  00:55+1:2201:03+1:328m12195.079174mNCRAgra, Uttar Pradesh
42/==/DHODholpur JunctionXO  01:43+2:0701:45+2:102m22247.673177mNCRDholpur, Rajasthan
43/==/MRAMorenaX  02:07+2:2002:09+2:212m12274.556176mNCRMorena, Madhya Pradesh
44/==/GWLGwalior JunctionX  02:50+2:2902:58+2:288m12313.073214mNCRGwalior, Madhya Pradesh
45/==/DBADabraX  03:33+2:4503:35+2:462m22355.349207mNCRDabra(District-Gwalior), Madhya Pradesh
46/==/SORSonagirX  03:58+2:4904:00+2:542m--2374.246211mNCRDatia, Madhya Pradesh
47/==/DAADatiaX  04:15+2:5804:17+3:012m22385.746264mNCRDatia, Madhya Pradesh
48/==/JHSJhansi JunctionX  04:50+3:1705:00+3:2510m52410.761259mNCRJhansi, Uttar Pradesh
49/==/BABBabinaX  05:25+3:3805:27+3:382m12436.252285mNCRBabina, Uttar Pradesh
50/==/BZYBasai  05:41+3:3805:43+3:382m12448.351287mNCR07522289600(Gate ManMob. - 9452701575), Madhya Pradesh
51/==/TBTTalbahatX  05:58+3:3606:00+3:382m12461.252314mNCRKhaniyadhana Station Rd, Madhya Pradesh
52/==/LARLalitpurX  06:46+3:2206:48+3:242m22501.177373mNCRLalitpur, Uttar Pradesh
53/==/JLNJakhalaunO  07:01+3:3307:03+3:342m22517.899394mNCRLalitpur(05176-272220), Uttar Pradesh
54/==/DUADhauraXO  07:10+3:3807:12+3:392m--2529.420407mNCRDhaura Tanda, Madhya Pradesh
55/==/BINABina JunctionX  08:55+2:5209:00+2:525m32564.069414mWCRJn Pt - KATNI/GUNA/ BPL/JHS, Madhya Pradesh
56/==/MABAMandi BamoraX  09:15+2:5809:17+2:592m22581.278413mWCRState Highway 14, Madhya Pradesh
57/==/BAQGanj BasodaX  09:39+3:0809:41+3:082m22609.769415mWCRVidisha, Madhya Pradesh
58/==/GLGGulabhGanjX  09:57+3:1109:59+3:132m--2628.074433mWCRVidisha, Madhya Pradesh
59/==/BHSVidishaX  10:16+3:1210:18+3:162m22649.056433mWCRVidisha, Madhya Pradesh
60/==/SCISanchiX  10:28+3:1510:30+3:132m--2658.466428mWCRRaisen, Madhya Pradesh
61/==/BPLBhopal JunctionX  11:10+3:2811:15+3:315m12702.538497mWCRBhopal, Madhya Pradesh
62/==/HBJBhopal HabibGanj  11:25+3:3211:27+3:332m42708.864496mWCRHabibGanj, Madhya Pradesh
63/==/MDDPMandi Dip  11:42+3:3911:44+3:402m12724.962455mWCRMandideep, Madhya Pradesh
64/==/ODGObaidulla Ganj  11:57+3:4211:59+3:432m12738.454448mWCRObaidullaganj Raisen Dist., Madhya Pradesh
65/==/BNIBudniX  12:33+3:3812:35+3:382m12769.246311mWCRSehore 466445 Madhya pradesh, Madhya Pradesh
66/==/HBDHoshangabadX  12:44+3:4112:46+3:412m22776.232308mWCRHoshangabad, Madhya Pradesh
67/==/ETItarsi Junction  13:20+3:3113:25+3:385m22794.384329mWCRItarsi 461111, Madhya Pradesh
68/==/BPFBanapura  13:49+3:4513:51+3:452m22827.777314mWCRBanapura, Madhya Pradesh
69/==/TBNTimarni  14:13+3:3814:15+3:382m12855.961308mWCRTimarni, Madhya Pradesh
70/==/HDHarda  14:29+3:4114:31+3:412m12870.176289mWCRHarda, Madhya Pradesh
71/==/KKNKhirkiyaX  14:56+3:4114:58+3:422m12901.680281mWCRSH 15, Madhya Pradesh
72/==/CAERChhanera  15:21+3:4015:23+3:402m22932.377283mWCRChhanera, Madhya Pradesh
73/==/TLVTalvadiya JunctionX  15:46+3:4115:48+3:412m22962.018308mWCRJn Point-Mathela/Khaigaon/Surgaon Banjari, Madhya Pradesh
74/==/KNWKhandwa JunctionX  16:40+3:3116:45+3:315m32977.778310mCRKhandwa, Madhya Pradesh
75/==/NPNRNepanagar  17:18+3:2417:20+3:252m--21020.368289mCRState Highway 27, Madhya Pradesh
76/==/BAUBurhanpur  17:43+3:3217:45+3:322m121046.693269mCRBurhanpur, Madhya Pradesh
77/==/RVRaverX  17:58+3:2818:00+3:242m--21066.876242mCRJalgaon, Maharashtra
78/==/NBNimbhoraX  18:08+3:2518:10+3:252m121076.965229mCRJalgaon, Maharashtra
79/==/SAVSavdaX  18:18+3:2618:20+3:252m221085.637220mCRSavda, Maharashtra
80/==/BSLBhusaval JunctionX  18:45+3:2718:55+3:3310m421101.163208mCRBhusaval 425201, Maharashtra
81/==/JLJalgaon Junction•X  19:18+3:4619:20+3:472m221125.287213mCRJalgaon 425001, Maharashtra
82/==/PCPachora JunctionO  19:53+3:3819:55+3:402m--21172.941264mCRPachora 424201, Maharashtra
83/==/CSNChalisgaon JunctionX  21:00+3:2721:05+3:425m--21217.7101352mCRChalisgaon 424101, Maharashtra
84/==/MMRManmad JunctionXO  21:45+4:0321:50+4:045m321285.367580mCRManmad 423104, Maharashtra
85/==/NKNasik RoadX  22:55+3:5923:00+3:575m321358.043563mCRNashik 422101, Maharashtra
86/==/DVLDevlaliXO  23:08+3:5123:10+3:522m221363.830561mCRDist. Nashik 422401, Maharashtra
87/==/IGPIgatpuriX  00:40+3:1000:45+3:185m331408.743589mCRIgatpuri 422403, Maharashtra
88/==/KYNKalyan Junction  02:40+3:4802:45+3:455m631490.56710mCRKalyan 421301, Maharashtra
89/==/TNAThane  03:03+2:4403:05+2:462m831510.72210mCRThane (West) 400602, Maharashtra
90/==/LTTMumbai Lokmanya Tilak Terminus  03:50+3:45---31527.2-7mCR, Maharashtra
Scroll to Top
Scroll to Bottom


Go to Mobile site